sensor_id;sensor_type;location;lat;lon;timestamp;P1;durP1;ratioP1;P2;durP2;ratioP2
934;SDS011;454;53.254;10.400;2022-10-31T05:00:55;17.33;;;10.50;;
934;SDS011;454;53.254;10.400;2022-10-31T05:03:22;19.33;;;10.67;;
934;SDS011;454;53.254;10.400;2022-10-31T05:05:49;23.00;;;12.20;;
934;SDS011;454;53.254;10.400;2022-10-31T05:08:16;17.37;;;10.90;;
934;SDS011;454;53.254;10.400;2022-10-31T05:10:43;19.70;;;12.23;;
934;SDS011;454;53.254;10.400;2022-10-31T05:13:10;20.30;;;9.90;;
934;SDS011;454;53.254;10.400;2022-10-31T05:15:36;15.90;;;10.43;;
934;SDS011;454;53.254;10.400;2022-10-31T05:18:04;19.23;;;11.50;;
934;SDS011;454;53.254;10.400;2022-10-31T05:20:31;17.93;;;9.47;;
934;SDS011;454;53.254;10.400;2022-10-31T05:22:58;28.37;;;12.80;;
934;SDS011;454;53.254;10.400;2022-10-31T05:25:26;17.20;;;9.20;;
934;SDS011;454;53.254;10.400;2022-10-31T05:27:55;16.70;;;12.07;;
934;SDS011;454;53.254;10.400;2022-10-31T05:30:23;20.03;;;10.47;;
934;SDS011;454;53.254;10.400;2022-10-31T05:32:51;17.47;;;9.93;;
934;SDS011;454;53.254;10.400;2022-10-31T05:35:19;21.60;;;13.03;;
934;SDS011;454;53.254;10.400;2022-10-31T05:37:47;22.10;;;9.40;;
934;SDS011;454;53.254;10.400;2022-10-31T05:40:14;18.63;;;11.73;;
934;SDS011;454;53.254;10.400;2022-10-31T05:42:42;21.53;;;12.50;;
934;SDS011;454;53.254;10.400;2022-10-31T05:45:10;23.27;;;11.20;;
934;SDS011;454;53.254;10.400;2022-10-31T05:47:38;24.77;;;10.97;;
934;SDS011;454;53.254;10.400;2022-10-31T05:50:05;15.60;;;8.83;;
934;SDS011;454;53.254;10.400;2022-10-31T05:52:34;21.33;;;11.20;;
934;SDS011;454;53.254;10.400;2022-10-31T05:55:01;17.87;;;8.80;;
934;SDS011;454;53.254;10.400;2022-10-31T05:57:28;19.17;;;11.37;;
934;SDS011;454;53.254;10.400;2022-10-31T05:59:55;19.03;;;10.67;;
934;SDS011;454;53.254;10.400;2022-10-31T06:02:22;19.10;;;9.80;;
934;SDS011;454;53.254;10.400;2022-10-31T06:04:48;16.30;;;9.40;;
934;SDS011;454;53.254;10.400;2022-10-31T06:07:15;21.00;;;9.87;;
934;SDS011;454;53.254;10.400;2022-10-31T06:09:43;21.63;;;10.10;;
934;SDS011;454;53.254;10.400;2022-10-31T06:12:10;18.93;;;10.37;;
934;SDS011;454;53.254;10.400;2022-10-31T06:14:37;18.53;;;12.20;;
934;SDS011;454;53.254;10.400;2022-10-31T06:17:03;10.20;;;7.57;;
934;SDS011;454;53.254;10.400;2022-10-31T06:19:30;25.13;;;11.10;;
934;SDS011;454;53.254;10.400;2022-10-31T06:21:57;10.60;;;8.90;;
934;SDS011;454;53.254;10.400;2022-10-31T06:24:23;18.13;;;10.13;;
934;SDS011;454;53.254;10.400;2022-10-31T06:26:51;13.90;;;8.40;;
934;SDS011;454;53.254;10.400;2022-10-31T06:29:18;11.77;;;8.70;;
934;SDS011;454;53.254;10.400;2022-10-31T06:31:44;13.97;;;10.20;;
934;SDS011;454;53.254;10.400;2022-10-31T06:34:11;11.90;;;10.33;;
934;SDS011;454;53.254;10.400;2022-10-31T06:36:38;17.47;;;9.33;;
934;SDS011;454;53.254;10.400;2022-10-31T06:39:04;19.90;;;8.83;;
934;SDS011;454;53.254;10.400;2022-10-31T06:41:31;13.17;;;7.07;;
934;SDS011;454;53.254;10.400;2022-10-31T06:43:59;15.23;;;8.33;;
934;SDS011;454;53.254;10.400;2022-10-31T06:46:26;20.03;;;8.87;;
934;SDS011;454;53.254;10.400;2022-10-31T06:48:53;15.53;;;8.53;;
934;SDS011;454;53.254;10.400;2022-10-31T06:51:19;17.27;;;9.23;;
934;SDS011;454;53.254;10.400;2022-10-31T06:53:46;14.77;;;8.23;;
934;SDS011;454;53.254;10.400;2022-10-31T06:56:13;13.83;;;9.20;;
934;SDS011;454;53.254;10.400;2022-10-31T06:58:39;19.47;;;9.50;;
934;SDS011;454;53.254;10.400;2022-10-31T07:01:07;15.80;;;9.27;;
934;SDS011;454;53.254;10.400;2022-10-31T07:03:34;14.90;;;9.70;;
934;SDS011;454;53.254;10.400;2022-10-31T07:06:01;19.50;;;7.53;;
934;SDS011;454;53.254;10.400;2022-10-31T07:08:28;8.47;;;7.00;;
934;SDS011;454;53.254;10.400;2022-10-31T07:10:55;15.60;;;9.67;;
934;SDS011;454;53.254;10.400;2022-10-31T07:13:23;12.47;;;7.60;;
934;SDS011;454;53.254;10.400;2022-10-31T07:15:51;13.70;;;9.83;;
934;SDS011;454;53.254;10.400;2022-10-31T07:18:20;16.30;;;7.30;;
934;SDS011;454;53.254;10.400;2022-10-31T07:20:47;18.73;;;8.60;;
934;SDS011;454;53.254;10.400;2022-10-31T07:23:14;14.70;;;8.40;;
934;SDS011;454;53.254;10.400;2022-10-31T07:25:41;12.83;;;6.40;;
934;SDS011;454;53.254;10.400;2022-10-31T07:28:08;17.50;;;8.87;;
934;SDS011;454;53.254;10.400;2022-10-31T07:30:36;11.03;;;6.43;;
934;SDS011;454;53.254;10.400;2022-10-31T07:33:03;15.03;;;6.93;;
934;SDS011;454;53.254;10.400;2022-10-31T07:35:31;9.70;;;6.77;;
934;SDS011;454;53.254;10.400;2022-10-31T07:38:06;13.37;;;6.83;;
934;SDS011;454;53.254;10.400;2022-10-31T07:40:33;7.23;;;5.87;;
934;SDS011;454;53.254;10.400;2022-10-31T07:43:00;14.27;;;6.97;;
934;SDS011;454;53.254;10.400;2022-10-31T07:45:27;12.40;;;7.20;;
934;SDS011;454;53.254;10.400;2022-10-31T07:47:53;10.80;;;5.80;;
934;SDS011;454;53.254;10.400;2022-10-31T07:50:21;10.30;;;7.33;;
934;SDS011;454;53.254;10.400;2022-10-31T07:52:58;8.40;;;6.63;;
934;SDS011;454;53.254;10.400;2022-10-31T07:55:25;19.43;;;6.43;;
934;SDS011;454;53.254;10.400;2022-10-31T07:57:56;7.53;;;6.53;;
934;SDS011;454;53.254;10.400;2022-10-31T08:00:24;13.53;;;7.00;;
934;SDS011;454;53.254;10.400;2022-10-31T08:02:56;8.10;;;6.00;;
934;SDS011;454;53.254;10.400;2022-10-31T08:05:23;11.77;;;6.43;;
934;SDS011;454;53.254;10.400;2022-10-31T08:07:50;10.03;;;6.43;;
934;SDS011;454;53.254;10.400;2022-10-31T08:10:18;19.90;;;6.67;;
934;SDS011;454;53.254;10.400;2022-10-31T08:12:45;9.70;;;5.40;;
934;SDS011;454;53.254;10.400;2022-10-31T08:15:12;9.27;;;5.43;;
934;SDS011;454;53.254;10.400;2022-10-31T08:17:39;8.43;;;5.20;;
934;SDS011;454;53.254;10.400;2022-10-31T08:20:06;5.43;;;4.93;;
934;SDS011;454;53.254;10.400;2022-10-31T08:22:33;10.23;;;5.93;;
934;SDS011;454;53.254;10.400;2022-10-31T08:25:00;6.97;;;4.90;;
934;SDS011;454;53.254;10.400;2022-10-31T08:27:28;14.10;;;6.77;;
934;SDS011;454;53.254;10.400;2022-10-31T08:29:55;9.63;;;6.07;;
934;SDS011;454;53.254;10.400;2022-10-31T08:32:22;10.43;;;6.10;;
934;SDS011;454;53.254;10.400;2022-10-31T08:34:48;13.33;;;6.50;;
934;SDS011;454;53.254;10.400;2022-10-31T08:37:15;15.10;;;6.17;;
934;SDS011;454;53.254;10.400;2022-10-31T08:39:44;5.87;;;4.77;;
934;SDS011;454;53.254;10.400;2022-10-31T08:42:11;7.77;;;5.33;;
934;SDS011;454;53.254;10.400;2022-10-31T08:44:39;13.10;;;7.07;;
934;SDS011;454;53.254;10.400;2022-10-31T08:47:06;10.27;;;6.17;;
934;SDS011;454;53.254;10.400;2022-10-31T08:49:33;6.17;;;4.10;;
934;SDS011;454;53.254;10.400;2022-10-31T08:51:59;8.87;;;5.10;;
934;SDS011;454;53.254;10.400;2022-10-31T08:54:26;9.97;;;5.30;;
934;SDS011;454;53.254;10.400;2022-10-31T08:56:53;7.87;;;4.30;;
934;SDS011;454;53.254;10.400;2022-10-31T08:59:21;6.20;;;4.97;;
934;SDS011;454;53.254;10.400;2022-10-31T09:01:49;7.93;;;5.43;;
934;SDS011;454;53.254;10.400;2022-10-31T09:04:15;11.93;;;6.50;;
934;SDS011;454;53.254;10.400;2022-10-31T09:06:42;7.33;;;4.33;;
934;SDS011;454;53.254;10.400;2022-10-31T09:09:09;6.83;;;4.63;;
934;SDS011;454;53.254;10.400;2022-10-31T09:11:35;10.00;;;6.40;;
934;SDS011;454;53.254;10.400;2022-10-31T09:14:02;4.83;;;4.43;;
934;SDS011;454;53.254;10.400;2022-10-31T09:16:29;12.27;;;6.90;;
934;SDS011;454;53.254;10.400;2022-10-31T09:18:57;6.43;;;4.53;;
934;SDS011;454;53.254;10.400;2022-10-31T09:21:23;5.67;;;5.10;;
934;SDS011;454;53.254;10.400;2022-10-31T09:23:50;7.93;;;4.60;;
934;SDS011;454;53.254;10.400;2022-10-31T09:26:18;6.67;;;6.17;;
934;SDS011;454;53.254;10.400;2022-10-31T09:28:46;5.17;;;4.77;;
934;SDS011;454;53.254;10.400;2022-10-31T09:31:12;7.90;;;5.40;;
934;SDS011;454;53.254;10.400;2022-10-31T09:33:39;8.73;;;4.37;;
934;SDS011;454;53.254;10.400;2022-10-31T09:36:08;3.67;;;3.33;;
934;SDS011;454;53.254;10.400;2022-10-31T09:38:35;5.47;;;4.47;;
934;SDS011;454;53.254;10.400;2022-10-31T09:41:04;3.47;;;3.13;;
934;SDS011;454;53.254;10.400;2022-10-31T09:43:39;10.07;;;4.13;;
934;SDS011;454;53.254;10.400;2022-10-31T09:46:17;7.50;;;4.77;;
934;SDS011;454;53.254;10.400;2022-10-31T09:48:55;7.43;;;4.00;;
934;SDS011;454;53.254;10.400;2022-10-31T09:51:36;4.10;;;3.70;;
934;SDS011;454;53.254;10.400;2022-10-31T09:54:06;6.53;;;3.37;;
934;SDS011;454;53.254;10.400;2022-10-31T09:56:38;5.60;;;3.07;;
934;SDS011;454;53.254;10.400;2022-10-31T09:59:05;7.10;;;4.33;;
934;SDS011;454;53.254;10.400;2022-10-31T10:01:42;7.37;;;5.20;;
934;SDS011;454;53.254;10.400;2022-10-31T10:04:19;3.90;;;3.43;;
934;SDS011;454;53.254;10.400;2022-10-31T10:06:57;4.47;;;4.13;;
934;SDS011;454;53.254;10.400;2022-10-31T10:09:26;4.17;;;3.80;;
934;SDS011;454;53.254;10.400;2022-10-31T10:11:55;10.03;;;5.23;;
934;SDS011;454;53.254;10.400;2022-10-31T10:14:33;4.87;;;4.57;;
934;SDS011;454;53.254;10.400;2022-10-31T10:17:11;5.00;;;3.63;;
934;SDS011;454;53.254;10.400;2022-10-31T10:19:49;9.10;;;4.47;;
934;SDS011;454;53.254;10.400;2022-10-31T10:22:26;3.33;;;3.03;;
934;SDS011;454;53.254;10.400;2022-10-31T10:25:12;4.17;;;3.60;;
934;SDS011;454;53.254;10.400;2022-10-31T10:27:46;4.23;;;3.83;;
934;SDS011;454;53.254;10.400;2022-10-31T10:30:17;3.47;;;3.10;;
934;SDS011;454;53.254;10.400;2022-10-31T10:32:46;4.00;;;3.33;;
934;SDS011;454;53.254;10.400;2022-10-31T10:35:19;6.90;;;2.30;;
934;SDS011;454;53.254;10.400;2022-10-31T10:37:52;2.47;;;2.37;;
934;SDS011;454;53.254;10.400;2022-10-31T10:40:23;3.43;;;3.23;;
934;SDS011;454;53.254;10.400;2022-10-31T10:42:55;2.80;;;2.70;;
934;SDS011;454;53.254;10.400;2022-10-31T10:48:57;3.13;;;2.57;;
934;SDS011;454;53.254;10.400;2022-10-31T10:51:30;2.93;;;2.73;;
934;SDS011;454;53.254;10.400;2022-10-31T10:54:10;3.73;;;2.50;;
934;SDS011;454;53.254;10.400;2022-10-31T10:56:51;2.70;;;2.50;;
934;SDS011;454;53.254;10.400;2022-10-31T10:59:25;3.93;;;3.00;;
934;SDS011;454;53.254;10.400;2022-10-31T11:01:54;6.37;;;3.27;;
934;SDS011;454;53.254;10.400;2022-10-31T11:04:25;3.70;;;2.43;;
934;SDS011;454;53.254;10.400;2022-10-31T11:06:59;2.50;;;1.87;;
934;SDS011;454;53.254;10.400;2022-10-31T11:09:28;2.83;;;2.63;;
934;SDS011;454;53.254;10.400;2022-10-31T11:11:55;1.93;;;1.93;;
934;SDS011;454;53.254;10.400;2022-10-31T11:14:23;3.00;;;2.83;;
934;SDS011;454;53.254;10.400;2022-10-31T11:16:52;2.73;;;2.63;;
934;SDS011;454;53.254;10.400;2022-10-31T11:19:21;4.87;;;2.57;;
934;SDS011;454;53.254;10.400;2022-10-31T11:21:51;4.50;;;3.80;;
934;SDS011;454;53.254;10.400;2022-10-31T11:24:19;2.33;;;2.23;;
934;SDS011;454;53.254;10.400;2022-10-31T11:26:48;2.20;;;2.10;;
934;SDS011;454;53.254;10.400;2022-10-31T11:29:16;2.53;;;2.40;;
934;SDS011;454;53.254;10.400;2022-10-31T11:31:46;2.40;;;2.30;;
934;SDS011;454;53.254;10.400;2022-10-31T11:34:18;8.63;;;2.53;;
934;SDS011;454;53.254;10.400;2022-10-31T11:36:53;2.23;;;2.13;;
934;SDS011;454;53.254;10.400;2022-10-31T11:39:21;1.97;;;1.97;;
934;SDS011;454;53.254;10.400;2022-10-31T11:41:51;1.93;;;1.83;;
934;SDS011;454;53.254;10.400;2022-10-31T11:44:19;2.27;;;2.20;;
934;SDS011;454;53.254;10.400;2022-10-31T11:46:49;4.40;;;2.70;;
934;SDS011;454;53.254;10.400;2022-10-31T11:49:17;2.47;;;2.27;;
934;SDS011;454;53.254;10.400;2022-10-31T11:51:47;2.80;;;2.70;;
934;SDS011;454;53.254;10.400;2022-10-31T11:54:19;3.20;;;2.90;;
934;SDS011;454;53.254;10.400;2022-10-31T11:56:48;2.67;;;2.47;;
934;SDS011;454;53.254;10.400;2022-10-31T11:59:17;2.80;;;2.60;;
934;SDS011;454;53.254;10.400;2022-10-31T12:01:50;5.67;;;2.03;;
934;SDS011;454;53.254;10.400;2022-10-31T12:04:18;1.43;;;1.43;;
934;SDS011;454;53.254;10.400;2022-10-31T12:06:53;2.87;;;2.77;;
934;SDS011;454;53.254;10.400;2022-10-31T12:09:21;3.87;;;2.77;;
934;SDS011;454;53.254;10.400;2022-10-31T12:11:53;3.20;;;3.00;;
934;SDS011;454;53.254;10.400;2022-10-31T12:14:55;1.57;;;1.50;;
934;SDS011;454;53.254;10.400;2022-10-31T12:17:31;1.80;;;1.70;;
934;SDS011;454;53.254;10.400;2022-10-31T12:20:07;2.80;;;2.60;;
934;SDS011;454;53.254;10.400;2022-10-31T12:22:46;2.23;;;2.13;;
934;SDS011;454;53.254;10.400;2022-10-31T12:25:25;2.27;;;2.17;;
934;SDS011;454;53.254;10.400;2022-10-31T12:28:12;1.90;;;1.63;;
934;SDS011;454;53.254;10.400;2022-10-31T12:30:53;3.40;;;2.80;;
934;SDS011;454;53.254;10.400;2022-10-31T12:33:34;1.90;;;1.80;;
934;SDS011;454;53.254;10.400;2022-10-31T12:36:15;1.90;;;1.80;;
934;SDS011;454;53.254;10.400;2022-10-31T12:38:56;3.93;;;2.07;;
934;SDS011;454;53.254;10.400;2022-10-31T12:41:44;1.93;;;1.83;;
934;SDS011;454;53.254;10.400;2022-10-31T12:44:25;4.63;;;2.40;;
934;SDS011;454;53.254;10.400;2022-10-31T12:47:18;1.20;;;1.20;;
934;SDS011;454;53.254;10.400;2022-10-31T12:49:55;4.23;;;1.73;;
934;SDS011;454;53.254;10.400;2022-10-31T12:52:33;1.80;;;1.60;;
934;SDS011;454;53.254;10.400;2022-10-31T12:55:11;1.40;;;1.40;;
934;SDS011;454;53.254;10.400;2022-10-31T12:57:58;1.30;;;1.30;;
934;SDS011;454;53.254;10.400;2022-10-31T13:00:30;3.23;;;1.30;;
934;SDS011;454;53.254;10.400;2022-10-31T13:03:01;2.17;;;2.07;;
934;SDS011;454;53.254;10.400;2022-10-31T13:05:36;1.67;;;1.57;;
934;SDS011;454;53.254;10.400;2022-10-31T13:08:07;6.83;;;1.80;;
934;SDS011;454;53.254;10.400;2022-10-31T13:10:39;1.97;;;1.97;;
934;SDS011;454;53.254;10.400;2022-10-31T13:13:11;1.57;;;1.53;;
934;SDS011;454;53.254;10.400;2022-10-31T13:15:46;2.10;;;2.00;;
934;SDS011;454;53.254;10.400;2022-10-31T13:18:21;2.60;;;2.50;;
934;SDS011;454;53.254;10.400;2022-10-31T13:20:52;1.97;;;1.97;;
934;SDS011;454;53.254;10.400;2022-10-31T13:23:21;2.23;;;2.03;;
934;SDS011;454;53.254;10.400;2022-10-31T13:25:53;9.83;;;2.23;;
934;SDS011;454;53.254;10.400;2022-10-31T13:28:24;1.77;;;1.67;;
934;SDS011;454;53.254;10.400;2022-10-31T13:30:56;2.80;;;2.60;;
934;SDS011;454;53.254;10.400;2022-10-31T13:33:24;2.93;;;1.90;;
934;SDS011;454;53.254;10.400;2022-10-31T13:35:55;2.30;;;2.20;;
934;SDS011;454;53.254;10.400;2022-10-31T13:38:44;2.43;;;2.23;;
934;SDS011;454;53.254;10.400;2022-10-31T13:41:21;2.83;;;2.60;;
934;SDS011;454;53.254;10.400;2022-10-31T13:43:59;1.53;;;1.53;;
934;SDS011;454;53.254;10.400;2022-10-31T13:46:35;2.03;;;1.93;;
934;SDS011;454;53.254;10.400;2022-10-31T13:49:19;3.80;;;2.33;;
934;SDS011;454;53.254;10.400;2022-10-31T13:51:50;4.20;;;2.17;;
934;SDS011;454;53.254;10.400;2022-10-31T13:54:21;2.53;;;2.33;;
934;SDS011;454;53.254;10.400;2022-10-31T13:56:49;3.00;;;2.80;;
934;SDS011;454;53.254;10.400;2022-10-31T13:59:18;3.77;;;2.63;;
934;SDS011;454;53.254;10.400;2022-10-31T14:01:48;2.23;;;2.17;;
934;SDS011;454;53.254;10.400;2022-10-31T14:04:19;2.70;;;2.50;;
934;SDS011;454;53.254;10.400;2022-10-31T14:06:51;3.47;;;2.33;;
934;SDS011;454;53.254;10.400;2022-10-31T14:09:24;2.23;;;2.17;;
934;SDS011;454;53.254;10.400;2022-10-31T14:11:55;2.00;;;1.90;;
934;SDS011;454;53.254;10.400;2022-10-31T14:14:23;2.60;;;2.40;;
934;SDS011;454;53.254;10.400;2022-10-31T14:16:56;2.43;;;1.90;;
934;SDS011;454;53.254;10.400;2022-10-31T14:19:25;2.37;;;2.27;;
934;SDS011;454;53.254;10.400;2022-10-31T14:21:52;9.37;;;4.37;;
934;SDS011;454;53.254;10.400;2022-10-31T14:24:33;2.60;;;2.50;;
934;SDS011;454;53.254;10.400;2022-10-31T14:27:03;2.07;;;2.07;;
934;SDS011;454;53.254;10.400;2022-10-31T14:29:45;2.03;;;1.93;;
934;SDS011;454;53.254;10.400;2022-10-31T14:32:16;3.43;;;2.90;;
934;SDS011;454;53.254;10.400;2022-10-31T14:34:52;5.00;;;3.07;;
934;SDS011;454;53.254;10.400;2022-10-31T14:37:26;2.27;;;2.17;;
934;SDS011;454;53.254;10.400;2022-10-31T14:40:10;2.50;;;2.30;;
934;SDS011;454;53.254;10.400;2022-10-31T14:42:49;2.67;;;2.40;;
934;SDS011;454;53.254;10.400;2022-10-31T14:45:34;6.47;;;2.93;;
934;SDS011;454;53.254;10.400;2022-10-31T14:48:11;3.47;;;2.53;;
934;SDS011;454;53.254;10.400;2022-10-31T14:50:49;3.77;;;2.87;;
934;SDS011;454;53.254;10.400;2022-10-31T14:53:19;2.60;;;2.40;;
934;SDS011;454;53.254;10.400;2022-10-31T14:55:50;5.47;;;2.83;;
934;SDS011;454;53.254;10.400;2022-10-31T14:58:20;3.47;;;3.27;;
934;SDS011;454;53.254;10.400;2022-10-31T15:00:50;6.70;;;4.03;;
934;SDS011;454;53.254;10.400;2022-10-31T15:03:21;4.90;;;2.93;;
934;SDS011;454;53.254;10.400;2022-10-31T15:05:54;5.40;;;3.20;;
934;SDS011;454;53.254;10.400;2022-10-31T15:08:31;3.97;;;2.43;;
934;SDS011;454;53.254;10.400;2022-10-31T15:11:02;4.47;;;3.37;;
934;SDS011;454;53.254;10.400;2022-10-31T15:13:35;5.87;;;3.30;;
934;SDS011;454;53.254;10.400;2022-10-31T15:16:08;3.93;;;3.47;;
934;SDS011;454;53.254;10.400;2022-10-31T15:18:38;2.20;;;2.20;;
934;SDS011;454;53.254;10.400;2022-10-31T15:21:15;5.20;;;3.90;;
934;SDS011;454;53.254;10.400;2022-10-31T15:23:43;3.60;;;2.83;;
934;SDS011;454;53.254;10.400;2022-10-31T15:26:11;2.50;;;2.30;;
934;SDS011;454;53.254;10.400;2022-10-31T15:28:42;2.60;;;2.40;;
934;SDS011;454;53.254;10.400;2022-10-31T15:31:12;4.37;;;2.27;;
934;SDS011;454;53.254;10.400;2022-10-31T15:33:42;3.80;;;3.60;;
934;SDS011;454;53.254;10.400;2022-10-31T15:36:19;7.93;;;3.03;;
934;SDS011;454;53.254;10.400;2022-10-31T15:38:46;5.80;;;3.40;;
934;SDS011;454;53.254;10.400;2022-10-31T15:41:22;4.10;;;3.70;;
934;SDS011;454;53.254;10.400;2022-10-31T15:43:54;4.77;;;3.13;;
934;SDS011;454;53.254;10.400;2022-10-31T15:46:23;4.23;;;3.30;;
934;SDS011;454;53.254;10.400;2022-10-31T15:48:52;2.27;;;2.17;;
934;SDS011;454;53.254;10.400;2022-10-31T15:51:26;4.00;;;3.80;;
934;SDS011;454;53.254;10.400;2022-10-31T15:53:55;4.40;;;3.20;;
934;SDS011;454;53.254;10.400;2022-10-31T15:56:22;5.77;;;5.23;;
934;SDS011;454;53.254;10.400;2022-10-31T15:58:51;5.30;;;4.60;;
934;SDS011;454;53.254;10.400;2022-10-31T16:01:20;9.23;;;5.40;;
934;SDS011;454;53.254;10.400;2022-10-31T16:04:02;16.50;;;6.83;;
934;SDS011;454;53.254;10.400;2022-10-31T16:06:33;9.03;;;5.13;;
934;SDS011;454;53.254;10.400;2022-10-31T16:09:00;7.80;;;5.60;;
934;SDS011;454;53.254;10.400;2022-10-31T16:11:30;6.03;;;5.53;;
934;SDS011;454;53.254;10.400;2022-10-31T16:14:00;7.23;;;5.00;;
934;SDS011;454;53.254;10.400;2022-10-31T16:16:33;12.33;;;4.70;;
934;SDS011;454;53.254;10.400;2022-10-31T16:19:11;8.00;;;6.67;;
934;SDS011;454;53.254;10.400;2022-10-31T16:21:44;5.97;;;5.43;;
934;SDS011;454;53.254;10.400;2022-10-31T16:24:16;10.73;;;6.93;;
934;SDS011;454;53.254;10.400;2022-10-31T16:26:48;15.47;;;7.80;;
934;SDS011;454;53.254;10.400;2022-10-31T16:29:24;7.47;;;5.63;;
934;SDS011;454;53.254;10.400;2022-10-31T16:31:52;6.00;;;5.00;;
934;SDS011;454;53.254;10.400;2022-10-31T16:34:20;11.60;;;7.37;;
934;SDS011;454;53.254;10.400;2022-10-31T16:36:49;6.30;;;5.13;;
934;SDS011;454;53.254;10.400;2022-10-31T16:39:16;7.47;;;5.60;;
934;SDS011;454;53.254;10.400;2022-10-31T16:41:44;10.03;;;5.63;;
934;SDS011;454;53.254;10.400;2022-10-31T16:44:17;9.53;;;5.50;;
934;SDS011;454;53.254;10.400;2022-10-31T16:46:48;5.97;;;4.37;;
934;SDS011;454;53.254;10.400;2022-10-31T16:49:33;4.67;;;4.20;;
934;SDS011;454;53.254;10.400;2022-10-31T16:52:01;7.17;;;4.87;;
934;SDS011;454;53.254;10.400;2022-10-31T16:54:28;9.00;;;5.23;;
934;SDS011;454;53.254;10.400;2022-10-31T16:56:55;6.43;;;4.70;;
934;SDS011;454;53.254;10.400;2022-10-31T16:59:24;7.00;;;5.80;;
934;SDS011;454;53.254;10.400;2022-10-31T17:01:52;7.93;;;5.07;;
934;SDS011;454;53.254;10.400;2022-10-31T17:04:19;10.40;;;6.53;;
934;SDS011;454;53.254;10.400;2022-10-31T17:06:46;9.87;;;6.53;;
934;SDS011;454;53.254;10.400;2022-10-31T17:09:14;12.60;;;6.70;;
934;SDS011;454;53.254;10.400;2022-10-31T17:11:47;8.70;;;4.60;;
934;SDS011;454;53.254;10.400;2022-10-31T17:14:17;8.03;;;6.97;;
934;SDS011;454;53.254;10.400;2022-10-31T17:16:44;7.00;;;5.53;;
934;SDS011;454;53.254;10.400;2022-10-31T17:19:11;6.10;;;4.57;;
934;SDS011;454;53.254;10.400;2022-10-31T17:21:38;9.20;;;6.60;;
934;SDS011;454;53.254;10.400;2022-10-31T17:24:06;7.20;;;6.47;;
934;SDS011;454;53.254;10.400;2022-10-31T17:26:38;7.87;;;7.07;;
934;SDS011;454;53.254;10.400;2022-10-31T17:29:05;6.57;;;5.20;;
934;SDS011;454;53.254;10.400;2022-10-31T17:31:32;13.00;;;8.00;;
934;SDS011;454;53.254;10.400;2022-10-31T17:34:03;19.70;;;10.10;;
934;SDS011;454;53.254;10.400;2022-10-31T17:36:30;8.07;;;6.50;;
934;SDS011;454;53.254;10.400;2022-10-31T17:38:58;11.33;;;6.37;;
934;SDS011;454;53.254;10.400;2022-10-31T17:41:25;16.87;;;8.63;;
934;SDS011;454;53.254;10.400;2022-10-31T17:43:54;9.43;;;7.13;;
934;SDS011;454;53.254;10.400;2022-10-31T17:46:21;17.83;;;7.30;;
934;SDS011;454;53.254;10.400;2022-10-31T17:48:48;15.30;;;8.80;;
934;SDS011;454;53.254;10.400;2022-10-31T17:51:15;9.03;;;6.10;;
934;SDS011;454;53.254;10.400;2022-10-31T17:53:41;10.07;;;8.80;;
934;SDS011;454;53.254;10.400;2022-10-31T17:56:08;10.53;;;7.97;;
934;SDS011;454;53.254;10.400;2022-10-31T17:58:36;10.63;;;5.60;;
934;SDS011;454;53.254;10.400;2022-10-31T18:01:07;17.40;;;8.73;;
934;SDS011;454;53.254;10.400;2022-10-31T18:03:34;11.60;;;6.97;;
934;SDS011;454;53.254;10.400;2022-10-31T18:06:01;14.37;;;7.70;;
934;SDS011;454;53.254;10.400;2022-10-31T18:08:29;14.30;;;7.90;;
934;SDS011;454;53.254;10.400;2022-10-31T18:10:57;15.00;;;7.57;;
934;SDS011;454;53.254;10.400;2022-10-31T18:13:24;10.00;;;6.00;;
934;SDS011;454;53.254;10.400;2022-10-31T18:15:51;11.93;;;6.77;;
934;SDS011;454;53.254;10.400;2022-10-31T18:18:19;19.87;;;7.67;;
934;SDS011;454;53.254;10.400;2022-10-31T18:20:46;10.97;;;8.00;;
934;SDS011;454;53.254;10.400;2022-10-31T18:23:13;7.37;;;5.00;;
934;SDS011;454;53.254;10.400;2022-10-31T18:25:39;13.87;;;8.10;;
934;SDS011;454;53.254;10.400;2022-10-31T18:28:07;18.40;;;7.00;;
934;SDS011;454;53.254;10.400;2022-10-31T18:30:37;13.50;;;5.73;;
934;SDS011;454;53.254;10.400;2022-10-31T18:33:04;15.40;;;7.03;;
934;SDS011;454;53.254;10.400;2022-10-31T18:35:33;13.60;;;8.00;;
934;SDS011;454;53.254;10.400;2022-10-31T18:38:00;13.05;;;8.13;;
934;SDS011;454;53.254;10.400;2022-10-31T18:40:27;7.33;;;5.37;;
934;SDS011;454;53.254;10.400;2022-10-31T18:42:54;10.90;;;5.80;;
934;SDS011;454;53.254;10.400;2022-10-31T18:45:20;13.07;;;5.40;;
934;SDS011;454;53.254;10.400;2022-10-31T18:47:49;13.13;;;7.90;;
934;SDS011;454;53.254;10.400;2022-10-31T18:50:16;11.57;;;7.07;;
934;SDS011;454;53.254;10.400;2022-10-31T18:52:44;6.47;;;4.80;;
934;SDS011;454;53.254;10.400;2022-10-31T18:55:10;8.77;;;6.23;;
934;SDS011;454;53.254;10.400;2022-10-31T18:57:37;12.37;;;5.47;;
934;SDS011;454;53.254;10.400;2022-10-31T19:00:04;8.50;;;5.73;;
934;SDS011;454;53.254;10.400;2022-10-31T19:02:32;13.70;;;6.27;;
934;SDS011;454;53.254;10.400;2022-10-31T19:04:58;9.73;;;6.43;;
934;SDS011;454;53.254;10.400;2022-10-31T19:07:25;6.83;;;6.13;;
934;SDS011;454;53.254;10.400;2022-10-31T19:09:53;12.47;;;6.20;;
934;SDS011;454;53.254;10.400;2022-10-31T19:12:20;7.80;;;4.90;;
934;SDS011;454;53.254;10.400;2022-10-31T19:14:46;7.40;;;6.60;;
934;SDS011;454;53.254;10.400;2022-10-31T19:17:13;5.17;;;4.77;;
934;SDS011;454;53.254;10.400;2022-10-31T19:19:40;7.90;;;5.90;;
934;SDS011;454;53.254;10.400;2022-10-31T19:22:07;7.50;;;4.30;;
934;SDS011;454;53.254;10.400;2022-10-31T19:24:34;10.17;;;6.50;;
934;SDS011;454;53.254;10.400;2022-10-31T19:27:02;6.07;;;4.87;;
934;SDS011;454;53.254;10.400;2022-10-31T19:29:28;11.43;;;6.57;;
934;SDS011;454;53.254;10.400;2022-10-31T19:31:55;7.60;;;5.60;;
934;SDS011;454;53.254;10.400;2022-10-31T19:34:22;6.30;;;4.93;;
934;SDS011;454;53.254;10.400;2022-10-31T19:36:48;9.77;;;5.77;;
934;SDS011;454;53.254;10.400;2022-10-31T19:39:15;13.30;;;5.47;;
934;SDS011;454;53.254;10.400;2022-10-31T19:41:42;7.73;;;4.87;;
934;SDS011;454;53.254;10.400;2022-10-31T19:44:10;8.50;;;4.53;;
934;SDS011;454;53.254;10.400;2022-10-31T19:46:36;7.80;;;5.20;;
934;SDS011;454;53.254;10.400;2022-10-31T19:49:08;7.27;;;3.93;;
934;SDS011;454;53.254;10.400;2022-10-31T19:51:35;12.80;;;6.80;;
934;SDS011;454;53.254;10.400;2022-10-31T19:54:02;11.20;;;4.93;;
934;SDS011;454;53.254;10.400;2022-10-31T19:56:28;19.23;;;8.40;;
934;SDS011;454;53.254;10.400;2022-10-31T19:58:55;5.23;;;3.80;;
934;SDS011;454;53.254;10.400;2022-10-31T20:01:24;16.43;;;6.53;;
934;SDS011;454;53.254;10.400;2022-10-31T20:03:51;14.03;;;6.30;;
934;SDS011;454;53.254;10.400;2022-10-31T20:06:20;7.00;;;6.07;;
934;SDS011;454;53.254;10.400;2022-10-31T20:08:48;7.63;;;4.70;;
934;SDS011;454;53.254;10.400;2022-10-31T20:11:16;11.33;;;5.47;;
934;SDS011;454;53.254;10.400;2022-10-31T20:13:43;9.07;;;5.73;;
934;SDS011;454;53.254;10.400;2022-10-31T20:16:11;6.83;;;4.23;;
934;SDS011;454;53.254;10.400;2022-10-31T20:18:40;7.50;;;5.40;;
934;SDS011;454;53.254;10.400;2022-10-31T20:21:08;6.80;;;5.13;;
934;SDS011;454;53.254;10.400;2022-10-31T20:23:36;5.47;;;3.40;;
934;SDS011;454;53.254;10.400;2022-10-31T20:26:04;6.30;;;3.93;;
934;SDS011;454;53.254;10.400;2022-10-31T20:28:33;11.43;;;5.57;;
934;SDS011;454;53.254;10.400;2022-10-31T20:31:00;8.20;;;4.37;;
934;SDS011;454;53.254;10.400;2022-10-31T20:33:33;7.20;;;3.70;;
934;SDS011;454;53.254;10.400;2022-10-31T20:36:03;13.67;;;5.23;;
934;SDS011;454;53.254;10.400;2022-10-31T20:38:30;13.70;;;6.47;;
934;SDS011;454;53.254;10.400;2022-10-31T20:41:00;4.10;;;3.70;;
934;SDS011;454;53.254;10.400;2022-10-31T20:43:28;10.47;;;5.43;;
934;SDS011;454;53.254;10.400;2022-10-31T20:45:57;10.30;;;4.37;;